sensor_id;sensor_type;location;lat;lon;timestamp;P1;durP1;ratioP1;P2;durP2;ratioP2
7997;SDS011;4044;49.814;7.828;2022-10-16T00:01:09;3.17;;;2.50;;
7997;SDS011;4044;49.814;7.828;2022-10-16T00:03:36;4.07;;;2.38;;
7997;SDS011;4044;49.814;7.828;2022-10-16T00:06:03;3.55;;;2.50;;
7997;SDS011;4044;49.814;7.828;2022-10-16T00:08:30;2.42;;;2.20;;
7997;SDS011;4044;49.814;7.828;2022-10-16T00:10:59;6.55;;;2.50;;
7997;SDS011;4044;49.814;7.828;2022-10-16T00:13:30;4.85;;;2.08;;
7997;SDS011;4044;49.814;7.828;2022-10-16T00:15:57;5.10;;;2.30;;
7997;SDS011;4044;49.814;7.828;2022-10-16T00:18:24;8.43;;;2.38;;
7997;SDS011;4044;49.814;7.828;2022-10-16T00:20:51;8.10;;;2.15;;
7997;SDS011;4044;49.814;7.828;2022-10-16T00:23:16;3.88;;;2.17;;
7997;SDS011;4044;49.814;7.828;2022-10-16T00:25:42;5.63;;;2.15;;
7997;SDS011;4044;49.814;7.828;2022-10-16T00:28:08;4.60;;;2.50;;
7997;SDS011;4044;49.814;7.828;2022-10-16T00:30:33;6.35;;;2.40;;
7997;SDS011;4044;49.814;7.828;2022-10-16T00:33:02;11.27;;;2.88;;
7997;SDS011;4044;49.814;7.828;2022-10-16T00:35:28;5.47;;;2.35;;
7997;SDS011;4044;49.814;7.828;2022-10-16T00:37:54;8.10;;;2.72;;
7997;SDS011;4044;49.814;7.828;2022-10-16T00:40:19;3.40;;;2.40;;
7997;SDS011;4044;49.814;7.828;2022-10-16T00:42:45;10.43;;;2.90;;
7997;SDS011;4044;49.814;7.828;2022-10-16T00:45:10;7.53;;;2.83;;
7997;SDS011;4044;49.814;7.828;2022-10-16T00:47:37;5.68;;;2.63;;
7997;SDS011;4044;49.814;7.828;2022-10-16T00:52:33;4.70;;;2.45;;
7997;SDS011;4044;49.814;7.828;2022-10-16T00:54:59;2.42;;;2.20;;
7997;SDS011;4044;49.814;7.828;2022-10-16T00:57:27;3.22;;;2.60;;
7997;SDS011;4044;49.814;7.828;2022-10-16T00:59:53;3.20;;;2.58;;
7997;SDS011;4044;49.814;7.828;2022-10-16T01:02:19;4.80;;;3.00;;
7997;SDS011;4044;49.814;7.828;2022-10-16T01:04:54;6.30;;;2.58;;
7997;SDS011;4044;49.814;7.828;2022-10-16T01:12:40;11.55;;;3.40;;
7997;SDS011;4044;49.814;7.828;2022-10-16T01:15:10;6.05;;;2.75;;
7997;SDS011;4044;49.814;7.828;2022-10-16T01:20:33;6.53;;;2.90;;
7997;SDS011;4044;49.814;7.828;2022-10-16T01:28:40;7.63;;;3.30;;
7997;SDS011;4044;49.814;7.828;2022-10-16T01:31:10;6.32;;;2.80;;
7997;SDS011;4044;49.814;7.828;2022-10-16T01:33:43;4.35;;;3.00;;
7997;SDS011;4044;49.814;7.828;2022-10-16T01:36:14;6.20;;;3.28;;
7997;SDS011;4044;49.814;7.828;2022-10-16T01:38:47;5.82;;;3.30;;
7997;SDS011;4044;49.814;7.828;2022-10-16T01:41:21;7.53;;;3.40;;
7997;SDS011;4044;49.814;7.828;2022-10-16T01:43:59;4.30;;;3.42;;
7997;SDS011;4044;49.814;7.828;2022-10-16T01:47:01;3.95;;;3.00;;
7997;SDS011;4044;49.814;7.828;2022-10-16T01:49:28;2.45;;;2.35;;
7997;SDS011;4044;49.814;7.828;2022-10-16T01:51:56;4.05;;;2.78;;
7997;SDS011;4044;49.814;7.828;2022-10-16T01:54:25;4.50;;;2.90;;
7997;SDS011;4044;49.814;7.828;2022-10-16T01:56:56;2.92;;;2.35;;
7997;SDS011;4044;49.814;7.828;2022-10-16T01:59:23;3.92;;;2.75;;
7997;SDS011;4044;49.814;7.828;2022-10-16T02:01:55;3.80;;;2.47;;
7997;SDS011;4044;49.814;7.828;2022-10-16T02:04:33;2.20;;;2.10;;
7997;SDS011;4044;49.814;7.828;2022-10-16T02:07:02;3.22;;;2.55;;
7997;SDS011;4044;49.814;7.828;2022-10-16T02:09:29;4.65;;;3.00;;
7997;SDS011;4044;49.814;7.828;2022-10-16T02:11:55;2.65;;;2.45;;
7997;SDS011;4044;49.814;7.828;2022-10-16T02:14:24;2.70;;;2.50;;
7997;SDS011;4044;49.814;7.828;2022-10-16T02:16:51;3.88;;;2.50;;
7997;SDS011;4044;49.814;7.828;2022-10-16T02:19:17;3.63;;;2.83;;
7997;SDS011;4044;49.814;7.828;2022-10-16T02:21:53;2.20;;;1.92;;
7997;SDS011;4044;49.814;7.828;2022-10-16T02:24:24;3.60;;;2.47;;
7997;SDS011;4044;49.814;7.828;2022-10-16T02:27:11;2.25;;;2.13;;
7997;SDS011;4044;49.814;7.828;2022-10-16T02:29:53;2.65;;;2.30;;
7997;SDS011;4044;49.814;7.828;2022-10-16T02:32:24;2.38;;;2.10;;
7997;SDS011;4044;49.814;7.828;2022-10-16T02:34:56;5.35;;;2.45;;
7997;SDS011;4044;49.814;7.828;2022-10-16T02:37:22;2.38;;;2.28;;
7997;SDS011;4044;49.814;7.828;2022-10-16T02:39:49;3.40;;;2.55;;
7997;SDS011;4044;49.814;7.828;2022-10-16T02:42:17;3.22;;;2.65;;
7997;SDS011;4044;49.814;7.828;2022-10-16T02:44:43;3.95;;;2.70;;
7997;SDS011;4044;49.814;7.828;2022-10-16T02:47:08;4.00;;;2.85;;
7997;SDS011;4044;49.814;7.828;2022-10-16T02:49:34;7.88;;;2.90;;
7997;SDS011;4044;49.814;7.828;2022-10-16T02:52:00;5.63;;;2.83;;
7997;SDS011;4044;49.814;7.828;2022-10-16T02:54:25;5.22;;;2.90;;
7997;SDS011;4044;49.814;7.828;2022-10-16T02:56:51;4.13;;;2.85;;
7997;SDS011;4044;49.814;7.828;2022-10-16T02:59:16;5.93;;;3.05;;
7997;SDS011;4044;49.814;7.828;2022-10-16T03:01:42;5.35;;;2.80;;
7997;SDS011;4044;49.814;7.828;2022-10-16T03:04:07;4.20;;;2.80;;
7997;SDS011;4044;49.814;7.828;2022-10-16T03:06:34;4.05;;;2.60;;
7997;SDS011;4044;49.814;7.828;2022-10-16T03:08:59;2.70;;;2.50;;
7997;SDS011;4044;49.814;7.828;2022-10-16T03:11:25;3.85;;;2.83;;
7997;SDS011;4044;49.814;7.828;2022-10-16T03:13:51;3.50;;;2.50;;
7997;SDS011;4044;49.814;7.828;2022-10-16T03:16:17;3.58;;;2.28;;
7997;SDS011;4044;49.814;7.828;2022-10-16T03:18:42;4.82;;;2.55;;
7997;SDS011;4044;49.814;7.828;2022-10-16T03:21:08;4.65;;;2.30;;
7997;SDS011;4044;49.814;7.828;2022-10-16T03:23:33;3.60;;;2.33;;
7997;SDS011;4044;49.814;7.828;2022-10-16T03:25:59;6.30;;;2.47;;
7997;SDS011;4044;49.814;7.828;2022-10-16T03:28:24;3.00;;;2.25;;
7997;SDS011;4044;49.814;7.828;2022-10-16T03:30:50;3.70;;;2.30;;
7997;SDS011;4044;49.814;7.828;2022-10-16T03:33:16;5.80;;;2.58;;
7997;SDS011;4044;49.814;7.828;2022-10-16T03:35:41;3.53;;;2.55;;
7997;SDS011;4044;49.814;7.828;2022-10-16T03:38:07;2.25;;;2.10;;
7997;SDS011;4044;49.814;7.828;2022-10-16T03:40:32;2.33;;;2.13;;
7997;SDS011;4044;49.814;7.828;2022-10-16T03:42:58;3.63;;;2.03;;
7997;SDS011;4044;49.814;7.828;2022-10-16T03:45:24;7.47;;;2.45;;
7997;SDS011;4044;49.814;7.828;2022-10-16T03:47:50;5.07;;;2.00;;
7997;SDS011;4044;49.814;7.828;2022-10-16T03:50:15;5.93;;;1.80;;
7997;SDS011;4044;49.814;7.828;2022-10-16T03:52:41;2.63;;;1.73;;
7997;SDS011;4044;49.814;7.828;2022-10-16T03:55:06;5.22;;;1.95;;
7997;SDS011;4044;49.814;7.828;2022-10-16T03:57:32;5.90;;;1.67;;
7997;SDS011;4044;49.814;7.828;2022-10-16T03:59:58;2.60;;;1.80;;
7997;SDS011;4044;49.814;7.828;2022-10-16T04:02:23;4.00;;;1.88;;
7997;SDS011;4044;49.814;7.828;2022-10-16T04:04:49;1.85;;;1.75;;
7997;SDS011;4044;49.814;7.828;2022-10-16T04:07:14;2.28;;;1.80;;
7997;SDS011;4044;49.814;7.828;2022-10-16T04:09:40;3.05;;;1.90;;
7997;SDS011;4044;49.814;7.828;2022-10-16T04:12:06;3.88;;;1.90;;
7997;SDS011;4044;49.814;7.828;2022-10-16T04:14:32;2.17;;;2.00;;
7997;SDS011;4044;49.814;7.828;2022-10-16T04:16:57;2.80;;;2.20;;
7997;SDS011;4044;49.814;7.828;2022-10-16T04:19:23;4.82;;;2.35;;
7997;SDS011;4044;49.814;7.828;2022-10-16T04:21:49;2.45;;;2.13;;
7997;SDS011;4044;49.814;7.828;2022-10-16T04:24:14;6.47;;;2.20;;
7997;SDS011;4044;49.814;7.828;2022-10-16T04:26:40;7.95;;;2.00;;
7997;SDS011;4044;49.814;7.828;2022-10-16T04:29:05;6.68;;;2.63;;
7997;SDS011;4044;49.814;7.828;2022-10-16T04:31:32;4.60;;;2.30;;
7997;SDS011;4044;49.814;7.828;2022-10-16T04:33:57;5.65;;;2.00;;
7997;SDS011;4044;49.814;7.828;2022-10-16T04:36:23;2.47;;;2.28;;
7997;SDS011;4044;49.814;7.828;2022-10-16T04:38:49;3.17;;;2.22;;
7997;SDS011;4044;49.814;7.828;2022-10-16T04:41:14;4.20;;;2.10;;
7997;SDS011;4044;49.814;7.828;2022-10-16T04:43:40;3.28;;;1.88;;
7997;SDS011;4044;49.814;7.828;2022-10-16T04:46:05;2.33;;;2.20;;
7997;SDS011;4044;49.814;7.828;2022-10-16T04:48:31;2.90;;;2.08;;
7997;SDS011;4044;49.814;7.828;2022-10-16T04:50:57;4.47;;;2.10;;
7997;SDS011;4044;49.814;7.828;2022-10-16T04:53:23;4.43;;;2.13;;
7997;SDS011;4044;49.814;7.828;2022-10-16T04:55:49;4.50;;;2.65;;
7997;SDS011;4044;49.814;7.828;2022-10-16T04:58:14;5.38;;;2.40;;
7997;SDS011;4044;49.814;7.828;2022-10-16T05:00:40;2.40;;;2.20;;
7997;SDS011;4044;49.814;7.828;2022-10-16T05:03:05;3.03;;;1.98;;
7997;SDS011;4044;49.814;7.828;2022-10-16T05:05:33;5.00;;;2.53;;
7997;SDS011;4044;49.814;7.828;2022-10-16T05:08:00;7.72;;;2.50;;
7997;SDS011;4044;49.814;7.828;2022-10-16T05:10:26;3.58;;;2.83;;
7997;SDS011;4044;49.814;7.828;2022-10-16T05:12:51;5.05;;;2.38;;
7997;SDS011;4044;49.814;7.828;2022-10-16T05:15:17;4.13;;;2.70;;
7997;SDS011;4044;49.814;7.828;2022-10-16T05:17:43;8.13;;;3.03;;
7997;SDS011;4044;49.814;7.828;2022-10-16T05:20:09;5.53;;;2.60;;
7997;SDS011;4044;49.814;7.828;2022-10-16T05:22:34;5.60;;;2.53;;
7997;SDS011;4044;49.814;7.828;2022-10-16T05:25:00;5.20;;;2.90;;
7997;SDS011;4044;49.814;7.828;2022-10-16T05:27:25;14.40;;;3.50;;
7997;SDS011;4044;49.814;7.828;2022-10-16T05:29:51;5.40;;;3.60;;
7997;SDS011;4044;49.814;7.828;2022-10-16T05:32:17;6.35;;;3.70;;
7997;SDS011;4044;49.814;7.828;2022-10-16T05:34:43;4.63;;;3.28;;
7997;SDS011;4044;49.814;7.828;2022-10-16T05:37:09;4.25;;;3.30;;
7997;SDS011;4044;49.814;7.828;2022-10-16T05:39:36;6.07;;;2.80;;
7997;SDS011;4044;49.814;7.828;2022-10-16T05:42:02;4.97;;;3.00;;
7997;SDS011;4044;49.814;7.828;2022-10-16T05:44:28;5.20;;;2.90;;
7997;SDS011;4044;49.814;7.828;2022-10-16T05:46:53;2.97;;;2.67;;
7997;SDS011;4044;49.814;7.828;2022-10-16T05:49:19;3.38;;;2.50;;
7997;SDS011;4044;49.814;7.828;2022-10-16T05:51:45;4.82;;;2.65;;
7997;SDS011;4044;49.814;7.828;2022-10-16T05:54:10;6.13;;;2.80;;
7997;SDS011;4044;49.814;7.828;2022-10-16T05:56:36;5.18;;;2.90;;
7997;SDS011;4044;49.814;7.828;2022-10-16T05:59:03;6.80;;;2.70;;
7997;SDS011;4044;49.814;7.828;2022-10-16T06:01:29;3.92;;;2.90;;
7997;SDS011;4044;49.814;7.828;2022-10-16T06:03:55;3.53;;;3.10;;
7997;SDS011;4044;49.814;7.828;2022-10-16T06:06:22;6.88;;;3.17;;
7997;SDS011;4044;49.814;7.828;2022-10-16T06:08:50;6.47;;;3.55;;
7997;SDS011;4044;49.814;7.828;2022-10-16T06:11:17;4.43;;;3.03;;
7997;SDS011;4044;49.814;7.828;2022-10-16T06:13:45;6.38;;;3.58;;
7997;SDS011;4044;49.814;7.828;2022-10-16T06:16:18;3.65;;;3.10;;
7997;SDS011;4044;49.814;7.828;2022-10-16T06:18:44;7.88;;;3.10;;
7997;SDS011;4044;49.814;7.828;2022-10-16T06:21:11;4.75;;;3.00;;
7997;SDS011;4044;49.814;7.828;2022-10-16T06:23:39;6.07;;;3.30;;
7997;SDS011;4044;49.814;7.828;2022-10-16T06:26:05;5.78;;;3.10;;
7997;SDS011;4044;49.814;7.828;2022-10-16T06:28:35;3.92;;;3.17;;
7997;SDS011;4044;49.814;7.828;2022-10-16T06:31:01;5.40;;;3.28;;
7997;SDS011;4044;49.814;7.828;2022-10-16T06:33:28;3.55;;;3.20;;
7997;SDS011;4044;49.814;7.828;2022-10-16T06:35:56;3.35;;;3.15;;
7997;SDS011;4044;49.814;7.828;2022-10-16T06:38:25;10.00;;;4.05;;
7997;SDS011;4044;49.814;7.828;2022-10-16T06:40:53;4.10;;;3.80;;
7997;SDS011;4044;49.814;7.828;2022-10-16T06:43:18;6.03;;;3.40;;
7997;SDS011;4044;49.814;7.828;2022-10-16T06:45:49;5.25;;;3.72;;
7997;SDS011;4044;49.814;7.828;2022-10-16T06:48:16;4.55;;;4.15;;
7997;SDS011;4044;49.814;7.828;2022-10-16T06:50:42;6.03;;;3.63;;
7997;SDS011;4044;49.814;7.828;2022-10-16T06:53:07;4.63;;;3.70;;
7997;SDS011;4044;49.814;7.828;2022-10-16T06:55:33;6.47;;;3.63;;
7997;SDS011;4044;49.814;7.828;2022-10-16T06:57:58;4.63;;;3.53;;
7997;SDS011;4044;49.814;7.828;2022-10-16T07:00:24;6.57;;;3.60;;
7997;SDS011;4044;49.814;7.828;2022-10-16T07:02:49;5.45;;;3.55;;
7997;SDS011;4044;49.814;7.828;2022-10-16T07:05:15;3.92;;;3.47;;
7997;SDS011;4044;49.814;7.828;2022-10-16T07:07:40;3.65;;;3.35;;
7997;SDS011;4044;49.814;7.828;2022-10-16T07:10:06;6.40;;;3.60;;
7997;SDS011;4044;49.814;7.828;2022-10-16T07:12:31;7.32;;;3.65;;
7997;SDS011;4044;49.814;7.828;2022-10-16T07:14:57;4.18;;;3.78;;
7997;SDS011;4044;49.814;7.828;2022-10-16T07:17:22;6.00;;;3.45;;
7997;SDS011;4044;49.814;7.828;2022-10-16T07:19:48;6.25;;;3.78;;
7997;SDS011;4044;49.814;7.828;2022-10-16T07:22:13;13.05;;;10.40;;
7997;SDS011;4044;49.814;7.828;2022-10-16T07:24:39;24.05;;;21.88;;
7997;SDS011;4044;49.814;7.828;2022-10-16T07:27:04;19.90;;;15.25;;
7997;SDS011;4044;49.814;7.828;2022-10-16T07:29:30;15.23;;;13.73;;
7997;SDS011;4044;49.814;7.828;2022-10-16T07:31:55;5.50;;;4.97;;
7997;SDS011;4044;49.814;7.828;2022-10-16T07:34:21;8.57;;;4.47;;
7997;SDS011;4044;49.814;7.828;2022-10-16T07:36:47;6.50;;;4.15;;
7997;SDS011;4044;49.814;7.828;2022-10-16T07:39:14;4.65;;;3.72;;
7997;SDS011;4044;49.814;7.828;2022-10-16T07:41:39;7.63;;;4.32;;
7997;SDS011;4044;49.814;7.828;2022-10-16T07:44:05;4.18;;;3.78;;
7997;SDS011;4044;49.814;7.828;2022-10-16T07:46:31;6.63;;;4.70;;
7997;SDS011;4044;49.814;7.828;2022-10-16T07:48:58;8.48;;;4.72;;
7997;SDS011;4044;49.814;7.828;2022-10-16T07:51:24;6.13;;;4.03;;
7997;SDS011;4044;49.814;7.828;2022-10-16T07:53:50;6.13;;;5.30;;
7997;SDS011;4044;49.814;7.828;2022-10-16T07:56:17;8.15;;;5.53;;
7997;SDS011;4044;49.814;7.828;2022-10-16T07:58:43;6.03;;;5.15;;
7997;SDS011;4044;49.814;7.828;2022-10-16T08:01:10;6.32;;;5.60;;
7997;SDS011;4044;49.814;7.828;2022-10-16T08:03:38;7.70;;;5.13;;
7997;SDS011;4044;49.814;7.828;2022-10-16T08:06:06;5.50;;;5.00;;
7997;SDS011;4044;49.814;7.828;2022-10-16T08:08:32;6.70;;;4.97;;
7997;SDS011;4044;49.814;7.828;2022-10-16T08:10:58;5.35;;;4.47;;
7997;SDS011;4044;49.814;7.828;2022-10-16T08:13:24;8.82;;;5.10;;
7997;SDS011;4044;49.814;7.828;2022-10-16T08:15:51;5.82;;;5.10;;
7997;SDS011;4044;49.814;7.828;2022-10-16T08:18:18;8.65;;;5.13;;
7997;SDS011;4044;49.814;7.828;2022-10-16T08:20:44;6.43;;;5.05;;
7997;SDS011;4044;49.814;7.828;2022-10-16T08:23:10;5.65;;;5.13;;
7997;SDS011;4044;49.814;7.828;2022-10-16T08:25:37;6.60;;;4.97;;
7997;SDS011;4044;49.814;7.828;2022-10-16T08:28:03;8.55;;;5.70;;
7997;SDS011;4044;49.814;7.828;2022-10-16T08:30:30;7.95;;;6.78;;
7997;SDS011;4044;49.814;7.828;2022-10-16T08:32:56;7.40;;;6.70;;
7997;SDS011;4044;49.814;7.828;2022-10-16T08:35:23;8.80;;;7.68;;
7997;SDS011;4044;49.814;7.828;2022-10-16T08:37:48;6.38;;;5.85;;
7997;SDS011;4044;49.814;7.828;2022-10-16T08:40:22;6.47;;;5.85;;
7997;SDS011;4044;49.814;7.828;2022-10-16T08:42:57;4.55;;;3.85;;
7997;SDS011;4044;49.814;7.828;2022-10-16T08:50:56;5.85;;;5.35;;
7997;SDS011;4044;49.814;7.828;2022-10-16T08:53:26;5.30;;;4.65;;
7997;SDS011;4044;49.814;7.828;2022-10-16T08:55:56;4.60;;;4.10;;
7997;SDS011;4044;49.814;7.828;2022-10-16T08:58:26;4.95;;;3.70;;
7997;SDS011;4044;49.814;7.828;2022-10-16T09:00:54;5.63;;;3.30;;
7997;SDS011;4044;49.814;7.828;2022-10-16T09:03:37;3.78;;;3.08;;
7997;SDS011;4044;49.814;7.828;2022-10-16T09:08:51;3.03;;;2.10;;
7997;SDS011;4044;49.814;7.828;2022-10-16T09:16:53;2.15;;;2.05;;
7997;SDS011;4044;49.814;7.828;2022-10-16T09:21:53;2.53;;;2.10;;
7997;SDS011;4044;49.814;7.828;2022-10-16T09:24:21;2.58;;;1.90;;
7997;SDS011;4044;49.814;7.828;2022-10-16T09:26:49;2.08;;;1.98;;
7997;SDS011;4044;49.814;7.828;2022-10-16T09:29:16;2.05;;;1.95;;
7997;SDS011;4044;49.814;7.828;2022-10-16T09:31:45;2.42;;;2.13;;
7997;SDS011;4044;49.814;7.828;2022-10-16T09:34:24;1.98;;;1.83;;
7997;SDS011;4044;49.814;7.828;2022-10-16T09:36:57;4.97;;;3.55;;
7997;SDS011;4044;49.814;7.828;2022-10-16T09:39:24;7.40;;;3.55;;
7997;SDS011;4044;49.814;7.828;2022-10-16T09:41:50;3.00;;;2.80;;
7997;SDS011;4044;49.814;7.828;2022-10-16T09:44:20;2.97;;;2.70;;
7997;SDS011;4044;49.814;7.828;2022-10-16T09:47:02;3.40;;;2.30;;
7997;SDS011;4044;49.814;7.828;2022-10-16T09:49:28;2.30;;;2.20;;
7997;SDS011;4044;49.814;7.828;2022-10-16T09:52:04;2.13;;;1.92;;
7997;SDS011;4044;49.814;7.828;2022-10-16T09:54:30;2.25;;;1.90;;
7997;SDS011;4044;49.814;7.828;2022-10-16T09:57:10;4.18;;;2.10;;
7997;SDS011;4044;49.814;7.828;2022-10-16T09:59:45;1.90;;;1.80;;
7997;SDS011;4044;49.814;7.828;2022-10-16T10:02:13;2.55;;;1.70;;
7997;SDS011;4044;49.814;7.828;2022-10-16T10:04:46;2.08;;;1.85;;
7997;SDS011;4044;49.814;7.828;2022-10-16T10:07:30;4.78;;;1.73;;
7997;SDS011;4044;49.814;7.828;2022-10-16T10:10:00;1.80;;;1.70;;
7997;SDS011;4044;49.814;7.828;2022-10-16T10:12:28;1.88;;;1.77;;
7997;SDS011;4044;49.814;7.828;2022-10-16T10:15:10;2.83;;;1.67;;
7997;SDS011;4044;49.814;7.828;2022-10-16T10:17:53;2.30;;;1.80;;
7997;SDS011;4044;49.814;7.828;2022-10-16T10:22:49;1.40;;;1.30;;
7997;SDS011;4044;49.814;7.828;2022-10-16T10:30:24;4.65;;;2.10;;
7997;SDS011;4044;49.814;7.828;2022-10-16T10:33:16;2.25;;;1.70;;
7997;SDS011;4044;49.814;7.828;2022-10-16T10:35:58;2.65;;;1.60;;
7997;SDS011;4044;49.814;7.828;2022-10-16T10:41:55;2.22;;;1.50;;
7997;SDS011;4044;49.814;7.828;2022-10-16T10:47:14;2.53;;;1.40;;
7997;SDS011;4044;49.814;7.828;2022-10-16T10:49:54;2.67;;;2.10;;
7997;SDS011;4044;49.814;7.828;2022-10-16T10:55:35;3.08;;;1.48;;
7997;SDS011;4044;49.814;7.828;2022-10-16T11:03:42;5.43;;;1.60;;
7997;SDS011;4044;49.814;7.828;2022-10-16T11:09:02;3.80;;;1.75;;
7997;SDS011;4044;49.814;7.828;2022-10-16T11:11:34;2.45;;;1.70;;
7997;SDS011;4044;49.814;7.828;2022-10-16T11:16:43;2.03;;;1.33;;
7997;SDS011;4044;49.814;7.828;2022-10-16T11:19:23;1.50;;;1.40;;
7997;SDS011;4044;49.814;7.828;2022-10-16T11:22:00;1.88;;;1.80;;
7997;SDS011;4044;49.814;7.828;2022-10-16T11:24:35;1.63;;;1.52;;
7997;SDS011;4044;49.814;7.828;2022-10-16T11:27:08;1.67;;;1.58;;
7997;SDS011;4044;49.814;7.828;2022-10-16T11:29:39;4.47;;;3.38;;
7997;SDS011;4044;49.814;7.828;2022-10-16T11:32:17;2.15;;;1.50;;
7997;SDS011;4044;49.814;7.828;2022-10-16T11:35:11;3.22;;;1.65;;
7997;SDS011;4044;49.814;7.828;2022-10-16T11:37:44;1.55;;;1.45;;
7997;SDS011;4044;49.814;7.828;2022-10-16T11:40:19;1.50;;;1.40;;
7997;SDS011;4044;49.814;7.828;2022-10-16T11:42:58;3.03;;;1.50;;
7997;SDS011;4044;49.814;7.828;2022-10-16T11:45:42;4.07;;;1.67;;
7997;SDS011;4044;49.814;7.828;2022-10-16T11:54:02;2.63;;;2.15;;
7997;SDS011;4044;49.814;7.828;2022-10-16T11:56:32;2.30;;;2.20;;
7997;SDS011;4044;49.814;7.828;2022-10-16T11:59:08;4.07;;;2.03;;
7997;SDS011;4044;49.814;7.828;2022-10-16T12:01:52;2.15;;;2.00;;
7997;SDS011;4044;49.814;7.828;2022-10-16T12:04:45;2.63;;;2.00;;
7997;SDS011;4044;49.814;7.828;2022-10-16T12:07:17;2.80;;;2.03;;
7997;SDS011;4044;49.814;7.828;2022-10-16T12:09:49;2.30;;;2.05;;
7997;SDS011;4044;49.814;7.828;2022-10-16T12:12:28;2.10;;;2.00;;
7997;SDS011;4044;49.814;7.828;2022-10-16T12:15:15;2.63;;;2.00;;
7997;SDS011;4044;49.814;7.828;2022-10-16T12:17:50;5.40;;;2.35;;
7997;SDS011;4044;49.814;7.828;2022-10-16T12:25:26;5.20;;;2.42;;
7997;SDS011;4044;49.814;7.828;2022-10-16T12:30:40;5.00;;;2.10;;
7997;SDS011;4044;49.814;7.828;2022-10-16T12:33:21;2.75;;;2.20;;
7997;SDS011;4044;49.814;7.828;2022-10-16T12:36:13;2.35;;;2.15;;
7997;SDS011;4044;49.814;7.828;2022-10-16T12:38:50;2.58;;;2.38;;
7997;SDS011;4044;49.814;7.828;2022-10-16T12:41:30;3.15;;;2.22;;
7997;SDS011;4044;49.814;7.828;2022-10-16T12:43:58;3.25;;;2.38;;
7997;SDS011;4044;49.814;7.828;2022-10-16T12:49:05;2.25;;;2.15;;
7997;SDS011;4044;49.814;7.828;2022-10-16T12:54:03;2.95;;;2.70;;
7997;SDS011;4044;49.814;7.828;2022-10-16T12:56:54;2.83;;;2.53;;
7997;SDS011;4044;49.814;7.828;2022-10-16T13:00:03;3.95;;;2.13;;
7997;SDS011;4044;49.814;7.828;2022-10-16T13:10:34;3.38;;;3.08;;
7997;SDS011;4044;49.814;7.828;2022-10-16T13:16:00;4.63;;;2.95;;
7997;SDS011;4044;49.814;7.828;2022-10-16T13:21:31;5.13;;;3.50;;
7997;SDS011;4044;49.814;7.828;2022-10-16T13:29:40;3.55;;;3.25;;
7997;SDS011;4044;49.814;7.828;2022-10-16T13:32:07;4.65;;;3.58;;
7997;SDS011;4044;49.814;7.828;2022-10-16T13:34:41;3.60;;;3.30;;
7997;SDS011;4044;49.814;7.828;2022-10-16T13:37:17;4.22;;;3.40;;
7997;SDS011;4044;49.814;7.828;2022-10-16T13:39:44;6.07;;;3.63;;
7997;SDS011;4044;49.814;7.828;2022-10-16T13:42:10;4.15;;;3.40;;
7997;SDS011;4044;49.814;7.828;2022-10-16T13:44:40;4.10;;;3.70;;
7997;SDS011;4044;49.814;7.828;2022-10-16T13:47:23;3.92;;;3.40;;
7997;SDS011;4044;49.814;7.828;2022-10-16T13:50:00;4.20;;;3.00;;
7997;SDS011;4044;49.814;7.828;2022-10-16T13:52:26;3.30;;;3.10;;
7997;SDS011;4044;49.814;7.828;2022-10-16T13:54:52;4.70;;;3.08;;
7997;SDS011;4044;49.814;7.828;2022-10-16T13:57:17;3.88;;;3.22;;
7997;SDS011;4044;49.814;7.828;2022-10-16T13:59:46;3.40;;;3.08;;
7997;SDS011;4044;49.814;7.828;2022-10-16T14:02:17;3.00;;;2.85;;
7997;SDS011;4044;49.814;7.828;2022-10-16T14:04:44;4.55;;;3.40;;
7997;SDS011;4044;49.814;7.828;2022-10-16T14:07:14;4.13;;;3.30;;
7997;SDS011;4044;49.814;7.828;2022-10-16T14:09:51;6.18;;;3.03;;
7997;SDS011;4044;49.814;7.828;2022-10-16T14:12:18;4.63;;;3.17;;
7997;SDS011;4044;49.814;7.828;2022-10-16T14:14:45;2.80;;;2.60;;
7997;SDS011;4044;49.814;7.828;2022-10-16T14:17:15;4.20;;;2.92;;
7997;SDS011;4044;49.814;7.828;2022-10-16T14:19:47;3.72;;;2.78;;
7997;SDS011;4044;49.814;7.828;2022-10-16T14:22:31;4.88;;;3.17;;
7997;SDS011;4044;49.814;7.828;2022-10-16T14:25:15;2.95;;;2.50;;
7997;SDS011;4044;49.814;7.828;2022-10-16T14:27:45;3.50;;;2.58;;
7997;SDS011;4044;49.814;7.828;2022-10-16T14:30:26;2.65;;;2.50;;
7997;SDS011;4044;49.814;7.828;2022-10-16T14:33:03;3.42;;;3.03;;
7997;SDS011;4044;49.814;7.828;2022-10-16T14:35:34;3.92;;;2.92;;
7997;SDS011;4044;49.814;7.828;2022-10-16T14:38:03;2.75;;;2.60;;
7997;SDS011;4044;49.814;7.828;2022-10-16T14:40:30;6.70;;;2.95;;
7997;SDS011;4044;49.814;7.828;2022-10-16T14:42:59;6.05;;;3.15;;
7997;SDS011;4044;49.814;7.828;2022-10-16T14:45:27;2.65;;;2.55;;
7997;SDS011;4044;49.814;7.828;2022-10-16T14:47:56;2.55;;;2.40;;
7997;SDS011;4044;49.814;7.828;2022-10-16T14:50:23;3.88;;;2.60;;
7997;SDS011;4044;49.814;7.828;2022-10-16T14:52:49;3.85;;;2.90;;
7997;SDS011;4044;49.814;7.828;2022-10-16T14:55:15;2.28;;;2.17;;
7997;SDS011;4044;49.814;7.828;2022-10-16T14:57:41;3.08;;;2.70;;
7997;SDS011;4044;49.814;7.828;2022-10-16T15:00:13;6.43;;;2.83;;
7997;SDS011;4044;49.814;7.828;2022-10-16T15:02:45;2.92;;;2.72;;
7997;SDS011;4044;49.814;7.828;2022-10-16T15:05:24;6.78;;;2.88;;
7997;SDS011;4044;49.814;7.828;2022-10-16T15:07:52;7.88;;;3.35;;
7997;SDS011;4044;49.814;7.828;2022-10-16T15:10:19;6.50;;;4.70;;
7997;SDS011;4044;49.814;7.828;2022-10-16T15:12:46;6.55;;;3.25;;
7997;SDS011;4044;49.814;7.828;2022-10-16T15:17:50;4.57;;;2.72;;
7997;SDS011;4044;49.814;7.828;2022-10-16T15:20:24;5.47;;;3.30;;
7997;SDS011;4044;49.814;7.828;2022-10-16T15:22:50;3.50;;;3.20;;
7997;SDS011;4044;49.814;7.828;2022-10-16T15:25:33;7.00;;;3.40;;
7997;SDS011;4044;49.814;7.828;2022-10-16T15:28:07;3.90;;;3.58;;
7997;SDS011;4044;49.814;7.828;2022-10-16T15:30:34;4.50;;;4.10;;
7997;SDS011;4044;49.814;7.828;2022-10-16T15:33:00;6.00;;;3.38;;
7997;SDS011;4044;49.814;7.828;2022-10-16T15:35:27;4.28;;;3.67;;
7997;SDS011;4044;49.814;7.828;2022-10-16T15:37:52;3.80;;;3.60;;
7997;SDS011;4044;49.814;7.828;2022-10-16T15:40:18;4.38;;;3.97;;
7997;SDS011;4044;49.814;7.828;2022-10-16T15:42:45;4.72;;;4.25;;
7997;SDS011;4044;49.814;7.828;2022-10-16T15:45:11;9.07;;;6.47;;
7997;SDS011;4044;49.814;7.828;2022-10-16T15:47:38;6.28;;;5.68;;
7997;SDS011;4044;49.814;7.828;2022-10-16T15:50:05;4.95;;;4.00;;
7997;SDS011;4044;49.814;7.828;2022-10-16T15:52:31;3.97;;;3.70;;
7997;SDS011;4044;49.814;7.828;2022-10-16T15:54:57;4.93;;;4.28;;
7997;SDS011;4044;49.814;7.828;2022-10-16T15:57:23;5.47;;;4.28;;
7997;SDS011;4044;49.814;7.828;2022-10-16T15:59:49;4.78;;;4.28;;
7997;SDS011;4044;49.814;7.828;2022-10-16T16:02:15;4.68;;;3.83;;
7997;SDS011;4044;49.814;7.828;2022-10-16T16:04:41;4.30;;;3.95;;
7997;SDS011;4044;49.814;7.828;2022-10-16T16:07:07;4.85;;;3.83;;
7997;SDS011;4044;49.814;7.828;2022-10-16T16:09:32;6.72;;;4.45;;
7997;SDS011;4044;49.814;7.828;2022-10-16T16:11:58;4.80;;;4.40;;
7997;SDS011;4044;49.814;7.828;2022-10-16T16:14:25;9.10;;;7.40;;
7997;SDS011;4044;49.814;7.828;2022-10-16T16:16:53;8.82;;;6.00;;
7997;SDS011;4044;49.814;7.828;2022-10-16T16:19:19;6.18;;;5.57;;
7997;SDS011;4044;49.814;7.828;2022-10-16T16:21:45;4.35;;;4.03;;
7997;SDS011;4044;49.814;7.828;2022-10-16T16:24:11;4.75;;;3.70;;
7997;SDS011;4044;49.814;7.828;2022-10-16T16:26:37;4.95;;;4.10;;
7997;SDS011;4044;49.814;7.828;2022-10-16T16:29:05;4.53;;;3.63;;
7997;SDS011;4044;49.814;7.828;2022-10-16T16:31:31;6.35;;;4.68;;
7997;SDS011;4044;49.814;7.828;2022-10-16T16:33:58;4.88;;;4.10;;
7997;SDS011;4044;49.814;7.828;2022-10-16T16:36:24;4.80;;;4.40;;
7997;SDS011;4044;49.814;7.828;2022-10-16T16:38:50;6.53;;;5.25;;
7997;SDS011;4044;49.814;7.828;2022-10-16T16:41:17;5.47;;;4.97;;
7997;SDS011;4044;49.814;7.828;2022-10-16T16:43:45;6.15;;;4.70;;
7997;SDS011;4044;49.814;7.828;2022-10-16T16:46:12;5.57;;;5.15;;
7997;SDS011;4044;49.814;7.828;2022-10-16T16:48:39;10.13;;;6.20;;
7997;SDS011;4044;49.814;7.828;2022-10-16T16:51:05;6.80;;;4.95;;
7997;SDS011;4044;49.814;7.828;2022-10-16T16:53:50;8.15;;;5.05;;
7997;SDS011;4044;49.814;7.828;2022-10-16T16:56:17;7.43;;;5.45;;
7997;SDS011;4044;49.814;7.828;2022-10-16T16:58:49;7.35;;;4.82;;
7997;SDS011;4044;49.814;7.828;2022-10-16T17:01:16;7.47;;;5.05;;
7997;SDS011;4044;49.814;7.828;2022-10-16T17:03:43;5.75;;;5.25;;
7997;SDS011;4044;49.814;7.828;2022-10-16T17:06:10;6.43;;;5.82;;
7997;SDS011;4044;49.814;7.828;2022-10-16T17:08:37;12.00;;;6.13;;